Aviation Digital Data Service (ADDS)

Output produced by METARs form (0542 UTC 21 January 2019)
found at http://www.aviationweather.gov/metar/data/
 
Forecast for: NVSS (PEKOA ARPT/SANTO, VU)
Text: TAF NVSS 210430Z 2106/2206 08006KT 9999 SCT020 BKN050 INTER 2106/2112 8000 SHRA BKN018 OVC038
Forecast period: 0600 UTC 21 January 2019 to 0600 UTC 22 January 2019
Forecast type: FROM: standard forecast or significant change
Winds: from the E (80 degrees) at 7 MPH (6 knots; 3.1 m/s)
Visibility: 6 or more miles 10+ km)
Ceiling: 5000 feet AGL
Clouds: scattered clouds at 2000 feet AGL
broken clouds at 5000 feet AGL
Weather: no significant weather forecast for this period
Text: PROB40 INTER 2108/2112 7000 -TSRA BKN018 FEW022CB
Forecast period: 0600 to 1200 UTC 21 January 2019
Forecast type: TEMPORARY: The following changes expected for less than half the time period
Visibility: 5 miles (8 km)
Ceiling: 1800 feet AGL
Clouds: broken clouds at 1800 feet AGL
overcast cloud deck at 3800 feet AGL
Weather: SHRA  (rain showers)
Text:
Forecast period: 0800 to 1200 UTC 21 January 2019
Forecast type: TEMPORARY: The following changes expected for less than half the time period
Visibility: 4 miles (7 km)
Ceiling: 1800 feet AGL
Clouds: broken clouds at 1800 feet AGL
few clouds at 2200 feet AGL
Weather: -TSRA  (light rain associated with thunderstorm(s))